To NAV CANADA Home Page Login to a new session Search on AWWS site Feedback and Comments Disclaimer Vers la page française équivalente Tips FAQ What's new on the site To the Forecasts and Observations / NOTAM section To "File a Flight Plan" website Publications and other links Update of the User's profile FIC Telephone Numbers My Weather Data Folder Route Weather Data Regional Weather Data Local Weather Data To the Forecasts and Observations / NOTAM section
Request Generated 04/29/2016 at 10:24:13 UTC . Weather information available at that time is displayed.

METAR/TAF

KITCHENER/WATERLOO/ON    (show WxCam)

METAR CYKF 291000Z AUTO 08010KT 9SM OVC090 04/M04 A3005 RMK SLP184=
METAR CYKF 290900Z AUTO 08009KT 9SM OVC100 04/M04 A3004 RMK SLP180=
METAR CYKF 290800Z AUTO 08009G15KT 9SM OVC095 04/M03 A3003 RMK
SLP178=

TAF CYKF 290938Z 2910/2922 06010KT P6SM OVC100
RMK FCST BASED ON AUTO OBS. NXT FCST BY 291400Z=
Your time UTC time
Weather data provided by Environment Canada and NAV CANADA